sensor_id;sensor_type;location;lat;lon;timestamp;pressure;altitude;pressure_sealevel;temperature;humidity
15294;BME280;7748;52.474;13.454;2023-02-13T00:00:34;58734.78;;;-145.20;100.00
15294;BME280;7748;52.474;13.454;2023-02-13T00:03:03;58734.78;;;-145.20;100.00
15294;BME280;7748;52.474;13.454;2023-02-13T00:05:31;58734.78;;;-145.20;100.00
15294;BME280;7748;52.474;13.454;2023-02-13T00:07:59;58734.78;;;-145.20;100.00
15294;BME280;7748;52.474;13.454;2023-02-13T00:10:27;58734.78;;;-145.20;100.00
15294;BME280;7748;52.474;13.454;2023-02-13T00:12:55;58734.78;;;-145.20;100.00
15294;BME280;7748;52.474;13.454;2023-02-13T00:15:25;58734.78;;;-145.20;100.00
15294;BME280;7748;52.474;13.454;2023-02-13T00:17:53;58734.78;;;-145.20;100.00
15294;BME280;7748;52.474;13.454;2023-02-13T00:20:21;58734.78;;;-145.20;100.00
15294;BME280;7748;52.474;13.454;2023-02-13T00:22:49;58734.78;;;-145.20;100.00
15294;BME280;7748;52.474;13.454;2023-02-13T00:25:17;58734.78;;;-145.20;100.00
15294;BME280;7748;52.474;13.454;2023-02-13T00:27:45;58734.78;;;-145.20;100.00
15294;BME280;7748;52.474;13.454;2023-02-13T00:30:14;58734.78;;;-145.20;100.00
15294;BME280;7748;52.474;13.454;2023-02-13T00:32:43;58734.78;;;-145.20;100.00
15294;BME280;7748;52.474;13.454;2023-02-13T00:35:11;58734.78;;;-145.20;100.00
15294;BME280;7748;52.474;13.454;2023-02-13T00:37:39;58734.78;;;-145.20;100.00
15294;BME280;7748;52.474;13.454;2023-02-13T00:40:08;58734.78;;;-145.20;100.00
15294;BME280;7748;52.474;13.454;2023-02-13T00:42:36;58734.78;;;-145.20;100.00
15294;BME280;7748;52.474;13.454;2023-02-13T00:45:04;58734.78;;;-145.20;100.00
15294;BME280;7748;52.474;13.454;2023-02-13T00:47:32;58734.78;;;-145.20;100.00
15294;BME280;7748;52.474;13.454;2023-02-13T00:50:01;58734.78;;;-145.20;100.00
15294;BME280;7748;52.474;13.454;2023-02-13T00:52:29;58734.78;;;-145.20;100.00
15294;BME280;7748;52.474;13.454;2023-02-13T00:54:57;58734.78;;;-145.20;100.00
15294;BME280;7748;52.474;13.454;2023-02-13T00:57:25;58734.78;;;-145.20;100.00
15294;BME280;7748;52.474;13.454;2023-02-13T00:59:53;58734.78;;;-145.20;100.00
15294;BME280;7748;52.474;13.454;2023-02-13T01:02:21;58734.78;;;-145.20;100.00
15294;BME280;7748;52.474;13.454;2023-02-13T01:04:49;103284.81;;;8.01;100.00
15294;BME280;7748;52.474;13.454;2023-02-13T01:07:18;103286.06;;;7.96;100.00
15294;BME280;7748;52.474;13.454;2023-02-13T01:09:46;58734.78;;;-145.20;100.00
15294;BME280;7748;52.474;13.454;2023-02-13T01:12:14;58734.78;;;-145.20;100.00
15294;BME280;7748;52.474;13.454;2023-02-13T01:14:41;58734.78;;;-145.20;100.00
15294;BME280;7748;52.474;13.454;2023-02-13T01:17:09;58734.78;;;-145.20;100.00
15294;BME280;7748;52.474;13.454;2023-02-13T01:19:39;58734.78;;;-145.20;100.00
15294;BME280;7748;52.474;13.454;2023-02-13T01:22:07;103293.56;;;7.93;100.00
15294;BME280;7748;52.474;13.454;2023-02-13T01:24:36;103298.75;;;7.93;100.00
15294;BME280;7748;52.474;13.454;2023-02-13T01:27:04;58734.78;;;-145.20;100.00
15294;BME280;7748;52.474;13.454;2023-02-13T01:29:32;58734.78;;;-145.20;100.00
15294;BME280;7748;52.474;13.454;2023-02-13T01:32:00;58734.78;;;-145.20;100.00
15294;BME280;7748;52.474;13.454;2023-02-13T01:34:30;58734.78;;;-145.20;100.00
15294;BME280;7748;52.474;13.454;2023-02-13T01:36:58;58734.78;;;-145.20;100.00
15294;BME280;7748;52.474;13.454;2023-02-13T01:39:26;58734.78;;;-145.20;100.00
15294;BME280;7748;52.474;13.454;2023-02-13T01:41:55;58734.78;;;-145.20;100.00
15294;BME280;7748;52.474;13.454;2023-02-13T01:44:46;58734.78;;;-145.20;100.00
15294;BME280;7748;52.474;13.454;2023-02-13T01:47:17;58734.78;;;-145.20;100.00
15294;BME280;7748;52.474;13.454;2023-02-13T01:49:47;58734.78;;;-145.20;100.00
15294;BME280;7748;52.474;13.454;2023-02-13T01:52:17;58734.78;;;-145.20;100.00
15294;BME280;7748;52.474;13.454;2023-02-13T01:54:45;58734.78;;;-145.20;100.00
15294;BME280;7748;52.474;13.454;2023-02-13T01:57:17;58734.78;;;-145.20;100.00
15294;BME280;7748;52.474;13.454;2023-02-13T01:59:51;103278.03;;;7.93;100.00
15294;BME280;7748;52.474;13.454;2023-02-13T02:02:21;103279.88;;;7.94;100.00
15294;BME280;7748;52.474;13.454;2023-02-13T02:04:49;103282.31;;;7.92;100.00
15294;BME280;7748;52.474;13.454;2023-02-13T02:07:20;103277.53;;;7.97;100.00
15294;BME280;7748;52.474;13.454;2023-02-13T02:09:51;103275.97;;;7.89;100.00
15294;BME280;7748;52.474;13.454;2023-02-13T02:12:25;103281.03;;;7.87;100.00
15294;BME280;7748;52.474;13.454;2023-02-13T02:14:55;103281.03;;;7.87;100.00
15294;BME280;7748;52.474;13.454;2023-02-13T02:17:25;103282.72;;;7.87;100.00
15294;BME280;7748;52.474;13.454;2023-02-13T02:20:03;103282.19;;;7.91;100.00
15294;BME280;7748;52.474;13.454;2023-02-13T02:25:49;103287.25;;;7.89;100.00
15294;BME280;7748;52.474;13.454;2023-02-13T02:28:53;103280.88;;;7.86;100.00
15294;BME280;7748;52.474;13.454;2023-02-13T02:31:58;103282.81;;;7.78;100.00
15294;BME280;7748;52.474;13.454;2023-02-13T02:34:36;103288.66;;;7.86;100.00
15294;BME280;7748;52.474;13.454;2023-02-13T02:37:17;103292.78;;;7.84;100.00
15294;BME280;7748;52.474;13.454;2023-02-13T02:39:56;103292.78;;;7.84;100.00
15294;BME280;7748;52.474;13.454;2023-02-13T02:42:36;103288.25;;;7.81;100.00
15294;BME280;7748;52.474;13.454;2023-02-13T02:45:10;103288.88;;;7.78;100.00
15294;BME280;7748;52.474;13.454;2023-02-13T02:47:52;103293.53;;;7.72;100.00
15294;BME280;7748;52.474;13.454;2023-02-13T02:50:41;103299.00;;;7.75;100.00
15294;BME280;7748;52.474;13.454;2023-02-13T02:53:21;103295.34;;;7.73;100.00
15294;BME280;7748;52.474;13.454;2023-02-13T02:55:53;58734.78;;;-145.20;100.00
15294;BME280;7748;52.474;13.454;2023-02-13T02:58:24;58734.78;;;-145.20;100.00
15294;BME280;7748;52.474;13.454;2023-02-13T03:01:14;103286.28;;;7.68;100.00
15294;BME280;7748;52.474;13.454;2023-02-13T03:04:03;103283.16;;;7.72;100.00
15294;BME280;7748;52.474;13.454;2023-02-13T03:06:50;103287.53;;;7.63;100.00
15294;BME280;7748;52.474;13.454;2023-02-13T03:09:23;58734.78;;;-145.20;100.00
15294;BME280;7748;52.474;13.454;2023-02-13T03:12:10;58734.78;;;-145.20;100.00
15294;BME280;7748;52.474;13.454;2023-02-13T03:14:57;58734.78;;;-145.20;100.00
15294;BME280;7748;52.474;13.454;2023-02-13T03:17:26;58734.78;;;-145.20;100.00
15294;BME280;7748;52.474;13.454;2023-02-13T03:20:22;103293.00;;;7.66;100.00
15294;BME280;7748;52.474;13.454;2023-02-13T03:23:14;103294.25;;;7.61;100.00
15294;BME280;7748;52.474;13.454;2023-02-13T03:26:10;103297.25;;;7.66;100.00
15294;BME280;7748;52.474;13.454;2023-02-13T03:28:48;103292.88;;;7.65;100.00
15294;BME280;7748;52.474;13.454;2023-02-13T03:31:43;103294.00;;;7.58;100.00
15294;BME280;7748;52.474;13.454;2023-02-13T03:34:19;103293.34;;;7.61;100.00
15294;BME280;7748;52.474;13.454;2023-02-13T03:36:55;103290.91;;;7.62;100.00
15294;BME280;7748;52.474;13.454;2023-02-13T03:39:47;103288.97;;;7.59;100.00
15294;BME280;7748;52.474;13.454;2023-02-13T03:42:22;58734.78;;;-145.20;100.00
15294;BME280;7748;52.474;13.454;2023-02-13T03:44:58;58734.78;;;-145.20;100.00
15294;BME280;7748;52.474;13.454;2023-02-13T03:47:46;103283.41;;;7.55;100.00
15294;BME280;7748;52.474;13.454;2023-02-13T03:50:17;103279.22;;;7.47;100.00
15294;BME280;7748;52.474;13.454;2023-02-13T03:52:49;103275.06;;;7.38;100.00
15294;BME280;7748;52.474;13.454;2023-02-13T03:55:21;103282.84;;;7.49;100.00
15294;BME280;7748;52.474;13.454;2023-02-13T03:58:10;103280.91;;;7.46;100.00
15294;BME280;7748;52.474;13.454;2023-02-13T04:01:00;103275.88;;;7.58;100.00
15294;BME280;7748;52.474;13.454;2023-02-13T04:03:34;103277.94;;;7.52;100.00
15294;BME280;7748;52.474;13.454;2023-02-13T04:06:07;103277.59;;;7.57;100.00
15294;BME280;7748;52.474;13.454;2023-02-13T04:08:37;103282.72;;;7.47;100.00
15294;BME280;7748;52.474;13.454;2023-02-13T04:11:10;103274.59;;;7.53;100.00
15294;BME280;7748;52.474;13.454;2023-02-13T04:13:43;103272.00;;;7.53;100.00
15294;BME280;7748;52.474;13.454;2023-02-13T04:16:15;103274.59;;;7.53;100.00
15294;BME280;7748;52.474;13.454;2023-02-13T04:18:45;103279.22;;;7.47;100.00
15294;BME280;7748;52.474;13.454;2023-02-13T04:21:13;103274.81;;;7.46;100.00
15294;BME280;7748;52.474;13.454;2023-02-13T04:23:42;103263.19;;;7.41;100.00
15294;BME280;7748;52.474;13.454;2023-02-13T04:26:15;103272.88;;;7.43;100.00
15294;BME280;7748;52.474;13.454;2023-02-13T04:28:44;103262.16;;;7.49;100.00
15294;BME280;7748;52.474;13.454;2023-02-13T04:31:12;103280.41;;;7.50;100.00
15294;BME280;7748;52.474;13.454;2023-02-13T04:33:40;103277.31;;;7.54;100.00
15294;BME280;7748;52.474;13.454;2023-02-13T04:36:08;103274.22;;;7.58;100.00
15294;BME280;7748;52.474;13.454;2023-02-13T04:38:36;103271.22;;;7.54;100.00
15294;BME280;7748;52.474;13.454;2023-02-13T04:41:05;103263.47;;;7.54;100.00
15294;BME280;7748;52.474;13.454;2023-02-13T04:43:33;103262.31;;;7.61;100.00
15294;BME280;7748;52.474;13.454;2023-02-13T04:46:01;103262.06;;;7.57;100.00
15294;BME280;7748;52.474;13.454;2023-02-13T04:48:29;103256.72;;;7.46;100.00
15294;BME280;7748;52.474;13.454;2023-02-13T04:50:57;103259.72;;;7.50;100.00
15294;BME280;7748;52.474;13.454;2023-02-13T04:53:25;103253.34;;;7.47;100.00
15294;BME280;7748;52.474;13.454;2023-02-13T04:55:53;103245.59;;;7.47;100.00
15294;BME280;7748;52.474;13.454;2023-02-13T04:58:22;103251.81;;;7.49;100.00
15294;BME280;7748;52.474;13.454;2023-02-13T05:00:50;103255.19;;;7.48;100.00
15294;BME280;7748;52.474;13.454;2023-02-13T05:03:18;103253.63;;;7.50;100.00
15294;BME280;7748;52.474;13.454;2023-02-13T05:05:47;103258.44;;;7.55;100.00
15294;BME280;7748;52.474;13.454;2023-02-13T05:08:15;103254.78;;;7.53;100.00
15294;BME280;7748;52.474;13.454;2023-02-13T05:10:43;103260.63;;;7.51;100.00
15294;BME280;7748;52.474;13.454;2023-02-13T05:13:11;103259.22;;;7.54;100.00
15294;BME280;7748;52.474;13.454;2023-02-13T05:15:40;103262.31;;;7.61;100.00
15294;BME280;7748;52.474;13.454;2023-02-13T05:18:08;103261.66;;;7.63;100.00
15294;BME280;7748;52.474;13.454;2023-02-13T05:20:36;103263.50;;;7.64;100.00
15294;BME280;7748;52.474;13.454;2023-02-13T05:23:04;103267.50;;;7.61;100.00
15294;BME280;7748;52.474;13.454;2023-02-13T05:25:49;103267.88;;;7.55;100.00
15294;BME280;7748;52.474;13.454;2023-02-13T05:28:17;103275.00;;;7.57;100.00
15294;BME280;7748;52.474;13.454;2023-02-13T05:31:04;103271.84;;;7.51;100.00
15294;BME280;7748;52.474;13.454;2023-02-13T05:33:32;103268.88;;;7.47;100.00
15294;BME280;7748;52.474;13.454;2023-02-13T05:36:00;103273.31;;;7.58;100.00
15294;BME280;7748;52.474;13.454;2023-02-13T05:38:27;103267.22;;;7.57;100.00
15294;BME280;7748;52.474;13.454;2023-02-13T05:40:57;103270.56;;;7.56;100.00
15294;BME280;7748;52.474;13.454;2023-02-13T05:43:26;103268.53;;;7.52;100.00
15294;BME280;7748;52.474;13.454;2023-02-13T05:46:00;103271.84;;;7.51;100.00
15294;BME280;7748;52.474;13.454;2023-02-13T05:48:30;103276.38;;;7.54;100.00
15294;BME280;7748;52.474;13.454;2023-02-13T05:50:58;103277.31;;;7.54;100.00
15294;BME280;7748;52.474;13.454;2023-02-13T05:53:26;103280.75;;;7.45;100.00
15294;BME280;7748;52.474;13.454;2023-02-13T05:55:55;103278.31;;;7.46;100.00
15294;BME280;7748;52.474;13.454;2023-02-13T05:58:23;103281.31;;;7.51;100.00
15294;BME280;7748;52.474;13.454;2023-02-13T06:00:54;103290.50;;;7.47;100.00
15294;BME280;7748;52.474;13.454;2023-02-13T06:03:23;103293.19;;;7.49;100.00
15294;BME280;7748;52.474;13.454;2023-02-13T06:05:53;103292.31;;;7.58;100.00
15294;BME280;7748;52.474;13.454;2023-02-13T06:08:22;103294.00;;;7.58;100.00
15294;BME280;7748;52.474;13.454;2023-02-13T06:10:50;103289.63;;;7.57;100.00
15294;BME280;7748;52.474;13.454;2023-02-13T06:13:19;103293.59;;;7.53;100.00
15294;BME280;7748;52.474;13.454;2023-02-13T06:15:46;103290.38;;;7.56;100.00
15294;BME280;7748;52.474;13.454;2023-02-13T06:18:16;103292.44;;;7.50;100.00
15294;BME280;7748;52.474;13.454;2023-02-13T06:20:44;103297.72;;;7.51;100.00
15294;BME280;7748;52.474;13.454;2023-02-13T06:23:15;103296.81;;;7.51;100.00
15294;BME280;7748;52.474;13.454;2023-02-13T06:25:43;103304.09;;;7.55;100.00
15294;BME280;7748;52.474;13.454;2023-02-13T06:28:11;103295.03;;;7.60;100.00
15294;BME280;7748;52.474;13.454;2023-02-13T06:30:39;103303.44;;;7.57;100.00
15294;BME280;7748;52.474;13.454;2023-02-13T06:33:07;103300.22;;;7.60;100.00
15294;BME280;7748;52.474;13.454;2023-02-13T06:35:35;103300.19;;;7.50;100.00
15294;BME280;7748;52.474;13.454;2023-02-13T06:38:02;103296.19;;;7.53;100.00
15294;BME280;7748;52.474;13.454;2023-02-13T06:40:32;103300.19;;;7.50;100.00
15294;BME280;7748;52.474;13.454;2023-02-13T06:42:59;103304.19;;;7.46;100.00
15294;BME280;7748;52.474;13.454;2023-02-13T06:45:27;103303.53;;;7.49;100.00
15294;BME280;7748;52.474;13.454;2023-02-13T06:47:55;103311.84;;;7.55;100.00
15294;BME280;7748;52.474;13.454;2023-02-13T06:50:23;103308.97;;;7.52;100.00
15294;BME280;7748;52.474;13.454;2023-02-13T06:52:52;103308.72;;;7.49;100.00
15294;BME280;7748;52.474;13.454;2023-02-13T06:55:20;103309.78;;;7.61;100.00
15294;BME280;7748;52.474;13.454;2023-02-13T06:57:50;103318.47;;;7.62;100.00
15294;BME280;7748;52.474;13.454;2023-02-13T07:00:19;103317.19;;;7.67;100.00
15294;BME280;7748;52.474;13.454;2023-02-13T07:02:47;103318.63;;;7.73;100.00
15294;BME280;7748;52.474;13.454;2023-02-13T07:05:15;103325.34;;;7.71;100.00
15294;BME280;7748;52.474;13.454;2023-02-13T07:07:43;103319.41;;;7.72;100.00
15294;BME280;7748;52.474;13.454;2023-02-13T07:10:12;103323.19;;;7.76;100.00
15294;BME280;7748;52.474;13.454;2023-02-13T07:12:40;103325.50;;;7.73;100.00
15294;BME280;7748;52.474;13.454;2023-02-13T07:15:11;103322.22;;;7.65;100.00
15294;BME280;7748;52.474;13.454;2023-02-13T07:17:39;103320.84;;;7.79;100.00
15294;BME280;7748;52.474;13.454;2023-02-13T07:20:08;103325.13;;;7.78;100.00
15294;BME280;7748;52.474;13.454;2023-02-13T07:22:39;103328.75;;;7.80;100.00
15294;BME280;7748;52.474;13.454;2023-02-13T07:25:07;103326.66;;;7.76;100.00
15294;BME280;7748;52.474;13.454;2023-02-13T07:27:35;103328.50;;;7.77;100.00
15294;BME280;7748;52.474;13.454;2023-02-13T07:30:04;103331.97;;;7.78;100.00
15294;BME280;7748;52.474;13.454;2023-02-13T07:32:33;103330.94;;;7.76;100.00
15294;BME280;7748;52.474;13.454;2023-02-13T07:35:01;103327.97;;;7.82;100.00
15294;BME280;7748;52.474;13.454;2023-02-13T07:37:30;103325.38;;;7.82;100.00
15294;BME280;7748;52.474;13.454;2023-02-13T07:39:58;103335.63;;;7.80;100.00
15294;BME280;7748;52.474;13.454;2023-02-13T07:42:26;103331.19;;;7.79;100.00
15294;BME280;7748;52.474;13.454;2023-02-13T07:44:54;103327.56;;;7.77;100.00
15294;BME280;7748;52.474;13.454;2023-02-13T07:47:22;103329.00;;;7.84;100.00
15294;BME280;7748;52.474;13.454;2023-02-13T07:49:51;103336.91;;;7.85;100.00
15294;BME280;7748;52.474;13.454;2023-02-13T07:52:20;103346.38;;;7.85;100.00
15294;BME280;7748;52.474;13.454;2023-02-13T07:54:48;103341.06;;;7.93;100.00
15294;BME280;7748;52.474;13.454;2023-02-13T07:57:16;103335.78;;;7.92;100.00
15294;BME280;7748;52.474;13.454;2023-02-13T07:59:44;103343.00;;;7.86;100.00
15294;BME280;7748;52.474;13.454;2023-02-13T08:02:13;103341.19;;;7.85;100.00
15294;BME280;7748;52.474;13.454;2023-02-13T08:04:42;103335.13;;;7.94;100.00
15294;BME280;7748;52.474;13.454;2023-02-13T08:07:15;103336.53;;;7.91;100.00
15294;BME280;7748;52.474;13.454;2023-02-13T08:09:43;103343.56;;;8.02;100.00
15294;BME280;7748;52.474;13.454;2023-02-13T08:12:29;103337.97;;;7.97;100.00
15294;BME280;7748;52.474;13.454;2023-02-13T08:14:57;103346.38;;;7.95;100.00
15294;BME280;7748;52.474;13.454;2023-02-13T08:17:25;103344.84;;;7.97;100.00
15294;BME280;7748;52.474;13.454;2023-02-13T08:19:53;103340.72;;;8.09;100.00
15294;BME280;7748;52.474;13.454;2023-02-13T08:22:22;103343.41;;;8.00;100.00
15294;BME280;7748;52.474;13.454;2023-02-13T08:24:53;103338.53;;;8.04;100.00
15294;BME280;7748;52.474;13.454;2023-02-13T08:27:21;103334.25;;;8.04;100.00
15294;BME280;7748;52.474;13.454;2023-02-13T08:29:49;103342.00;;;8.14;100.00
15294;BME280;7748;52.474;13.454;2023-02-13T08:32:17;103337.13;;;8.17;100.00
15294;BME280;7748;52.474;13.454;2023-02-13T08:34:45;103340.22;;;8.13;100.00
15294;BME280;7748;52.474;13.454;2023-02-13T08:37:13;103344.00;;;8.27;100.00
15294;BME280;7748;52.474;13.454;2023-02-13T08:39:42;103341.00;;;8.22;100.00
15294;BME280;7748;52.474;13.454;2023-02-13T08:42:10;103331.19;;;8.29;100.00
15294;BME280;7748;52.474;13.454;2023-02-13T08:44:43;103341.66;;;8.30;100.00
15294;BME280;7748;52.474;13.454;2023-02-13T08:47:11;103334.41;;;8.36;100.00
15294;BME280;7748;52.474;13.454;2023-02-13T08:49:38;103337.91;;;8.37;100.00
15294;BME280;7748;52.474;13.454;2023-02-13T08:52:06;103342.06;;;8.35;100.00
15294;BME280;7748;52.474;13.454;2023-02-13T08:54:34;103334.94;;;8.32;100.00
15294;BME280;7748;52.474;13.454;2023-02-13T08:57:04;103340.25;;;8.34;100.00
15294;BME280;7748;52.474;13.454;2023-02-13T08:59:32;103340.25;;;8.34;100.00
15294;BME280;7748;52.474;13.454;2023-02-13T09:01:59;103344.38;;;8.21;100.00
15294;BME280;7748;52.474;13.454;2023-02-13T09:04:27;103340.25;;;8.34;100.00
15294;BME280;7748;52.474;13.454;2023-02-13T09:06:55;103338.94;;;8.39;100.00
15294;BME280;7748;52.474;13.454;2023-02-13T09:09:23;103339.47;;;8.25;100.00
15294;BME280;7748;52.474;13.454;2023-02-13T09:11:51;103337.91;;;8.27;100.00
15294;BME280;7748;52.474;13.454;2023-02-13T09:14:23;103341.53;;;8.29;100.00
15294;BME280;7748;52.474;13.454;2023-02-13T09:16:50;103342.56;;;8.31;100.00
15294;BME280;7748;52.474;13.454;2023-02-13T09:19:19;103341.00;;;8.33;100.00
15294;BME280;7748;52.474;13.454;2023-02-13T09:21:46;103352.91;;;8.20;100.00
15294;BME280;7748;52.474;13.454;2023-02-13T09:24:14;103345.16;;;8.31;100.00
15294;BME280;7748;52.474;13.454;2023-02-13T09:26:42;103353.75;;;8.40;100.00
15294;BME280;7748;52.474;13.454;2023-02-13T09:29:10;103351.91;;;8.39;100.00
15294;BME280;7748;52.474;13.454;2023-02-13T09:31:39;103355.56;;;8.51;100.00
15294;BME280;7748;52.474;13.454;2023-02-13T09:34:07;103355.31;;;8.48;100.00
15294;BME280;7748;52.474;13.454;2023-02-13T09:36:35;103358.56;;;8.56;100.00
15294;BME280;7748;52.474;13.454;2023-02-13T09:39:03;103352.72;;;8.58;100.00
15294;BME280;7748;52.474;13.454;2023-02-13T09:41:33;103364.38;;;8.53;100.00
15294;BME280;7748;52.474;13.454;2023-02-13T09:44:05;103361.00;;;8.44;100.00
15294;BME280;7748;52.474;13.454;2023-02-13T09:46:36;103361.41;;;8.49;100.00
15294;BME280;7748;52.474;13.454;2023-02-13T09:49:07;103353.78;;;8.50;100.00
15294;BME280;7748;52.474;13.454;2023-02-13T09:51:40;103357.91;;;8.48;100.00
15294;BME280;7748;52.474;13.454;2023-02-13T09:54:13;103349.38;;;8.59;100.00
15294;BME280;7748;52.474;13.454;2023-02-13T09:56:49;103345.72;;;8.57;100.00
15294;BME280;7748;52.474;13.454;2023-02-13T09:59:35;103340.31;;;8.54;100.00
15294;BME280;7748;52.474;13.454;2023-02-13T10:02:18;103341.19;;;8.55;100.00
15294;BME280;7748;52.474;13.454;2023-02-13T10:04:59;103346.91;;;8.40;100.00
15294;BME280;7748;52.474;13.454;2023-02-13T10:07:36;103351.91;;;8.29;100.00
15294;BME280;7748;52.474;13.454;2023-02-13T10:10:14;103344.09;;;8.18;100.00
15294;BME280;7748;52.474;13.454;2023-02-13T10:12:55;103352.00;;;8.20;100.00
15294;BME280;7748;52.474;13.454;2023-02-13T10:15:30;103352.00;;;8.20;100.00
15294;BME280;7748;52.474;13.454;2023-02-13T10:18:03;103346.97;;;8.21;100.00
15294;BME280;7748;52.474;13.454;2023-02-13T10:20:37;103340.91;;;8.31;100.00
15294;BME280;7748;52.474;13.454;2023-02-13T10:23:17;103348.06;;;8.54;100.00
15294;BME280;7748;52.474;13.454;2023-02-13T10:25:52;103331.22;;;8.49;100.00
15294;BME280;7748;52.474;13.454;2023-02-13T10:28:29;103340.56;;;8.57;100.00
15294;BME280;7748;52.474;13.454;2023-02-13T10:31:03;103334.19;;;8.54;100.00
15294;BME280;7748;52.474;13.454;2023-02-13T10:33:38;103338.38;;;8.52;100.00
15294;BME280;7748;52.474;13.454;2023-02-13T10:36:16;103338.72;;;8.46;100.00
15294;BME280;7748;52.474;13.454;2023-02-13T10:38:56;103339.72;;;8.28;100.00
15294;BME280;7748;52.474;13.454;2023-02-13T10:41:37;103341.50;;;8.08;100.00
15294;BME280;7748;52.474;13.454;2023-02-13T10:44:20;103338.56;;;8.24;100.00
15294;BME280;7748;52.474;13.454;2023-02-13T10:46:56;103335.06;;;8.34;100.00
15294;BME280;7748;52.474;13.454;2023-02-13T10:49:44;103325.78;;;8.46;100.00
15294;BME280;7748;52.474;13.454;2023-02-13T10:52:24;103319.41;;;8.63;100.00
15294;BME280;7748;52.474;13.454;2023-02-13T10:55:04;103313.84;;;8.58;100.00
15294;BME280;7748;52.474;13.454;2023-02-13T10:57:51;103312.03;;;8.68;100.00
15294;BME280;7748;52.474;13.454;2023-02-13T11:00:26;103315.16;;;8.63;100.00
15294;BME280;7748;52.474;13.454;2023-02-13T11:02:57;103312.56;;;8.43;100.00
15294;BME280;7748;52.474;13.454;2023-02-13T11:05:30;103309.69;;;8.40;100.00
15294;BME280;7748;52.474;13.454;2023-02-13T11:08:00;103313.88;;;8.48;100.00
15294;BME280;7748;52.474;13.454;2023-02-13T11:10:28;103313.63;;;8.45;100.00
15294;BME280;7748;52.474;13.454;2023-02-13T11:13:16;103315.66;;;8.49;100.00
15294;BME280;7748;52.474;13.454;2023-02-13T11:16:02;103312.06;;;8.47;100.00
15294;BME280;7748;52.474;13.454;2023-02-13T11:18:32;103311.78;;;8.44;100.00
15294;BME280;7748;52.474;13.454;2023-02-13T11:21:05;103304.81;;;8.43;100.00
15294;BME280;7748;52.474;13.454;2023-02-13T11:23:42;103309.69;;;8.40;100.00
15294;BME280;7748;52.474;13.454;2023-02-13T11:26:14;103309.97;;;8.43;100.00
15294;BME280;7748;52.474;13.454;2023-02-13T11:28:52;103309.22;;;8.54;100.00
15294;BME280;7748;52.474;13.454;2023-02-13T11:31:28;103309.69;;;8.60;100.00
15294;BME280;7748;52.474;13.454;2023-02-13T11:33:58;103305.81;;;8.55;100.00
15294;BME280;7748;52.474;13.454;2023-02-13T11:36:28;103300.66;;;8.55;100.00
15294;BME280;7748;52.474;13.454;2023-02-13T11:39:00;103308.69;;;8.48;100.00
15294;BME280;7748;52.474;13.454;2023-02-13T11:41:29;103308.78;;;8.39;100.00
15294;BME280;7748;52.474;13.454;2023-02-13T11:44:00;103307.88;;;8.49;100.00
15294;BME280;7748;52.474;13.454;2023-02-13T11:46:42;103303.75;;;8.51;100.00
15294;BME280;7748;52.474;13.454;2023-02-13T11:49:16;103296.63;;;8.59;100.00
15294;BME280;7748;52.474;13.454;2023-02-13T11:51:47;103296.47;;;8.68;100.00
15294;BME280;7748;52.474;13.454;2023-02-13T11:54:24;103292.56;;;8.83;100.00
15294;BME280;7748;52.474;13.454;2023-02-13T11:56:55;103284.28;;;8.77;100.00
15294;BME280;7748;52.474;13.454;2023-02-13T11:59:37;103291.56;;;8.71;100.00
15294;BME280;7748;52.474;13.454;2023-02-13T12:02:15;103296.75;;;8.71;100.00
15294;BME280;7748;52.474;13.454;2023-02-13T12:04:45;103286.91;;;8.67;100.00
15294;BME280;7748;52.474;13.454;2023-02-13T12:07:16;103286.63;;;8.74;100.00
15294;BME280;7748;52.474;13.454;2023-02-13T12:09:49;103287.16;;;8.80;100.00
15294;BME280;7748;52.474;13.454;2023-02-13T12:12:25;103283.00;;;8.82;100.00
15294;BME280;7748;52.474;13.454;2023-02-13T12:14:56;103282.50;;;8.76;100.00
15294;BME280;7748;52.474;13.454;2023-02-13T12:17:26;103291.81;;;8.74;100.00
15294;BME280;7748;52.474;13.454;2023-02-13T12:19:58;103289.47;;;8.87;100.00
15294;BME280;7748;52.474;13.454;2023-02-13T12:22:31;103286.50;;;8.82;100.00
15294;BME280;7748;52.474;13.454;2023-02-13T12:25:17;103283.75;;;8.81;100.00
15294;BME280;7748;52.474;13.454;2023-02-13T12:28:09;103288.44;;;8.75;100.00
15294;BME280;7748;52.474;13.454;2023-02-13T12:31:04;103288.19;;;8.72;100.00
15294;BME280;7748;52.474;13.454;2023-02-13T12:36:40;103287.63;;;8.86;100.00
15294;BME280;7748;52.474;13.454;2023-02-13T12:39:25;103285.94;;;8.97;100.00
15294;BME280;7748;52.474;13.454;2023-02-13T12:42:05;103278.16;;;8.97;100.00
15294;BME280;7748;52.474;13.454;2023-02-13T12:45:12;103283.06;;;9.04;100.00
15294;BME280;7748;52.474;13.454;2023-02-13T12:48:09;103287.59;;;9.06;100.00
15294;BME280;7748;52.474;13.454;2023-02-13T12:50:54;103292.41;;;9.12;100.00
15294;BME280;7748;52.474;13.454;2023-02-13T12:53:51;103280.69;;;9.17;100.00
15294;BME280;7748;52.474;13.454;2023-02-13T12:56:46;103281.06;;;9.22;100.00
15294;BME280;7748;52.474;13.454;2023-02-13T12:59:29;103278.53;;;9.01;100.00
15294;BME280;7748;52.474;13.454;2023-02-13T13:05:18;103272.06;;;8.96;100.00
15294;BME280;7748;52.474;13.454;2023-02-13T13:08:23;103287.81;;;8.67;100.00
15294;BME280;7748;52.474;13.454;2023-02-13T13:11:08;103281.09;;;8.59;100.00
15294;BME280;7748;52.474;13.454;2023-02-13T13:13:50;103282.25;;;8.62;100.00
15294;BME280;7748;52.474;13.454;2023-02-13T13:16:25;103272.13;;;8.66;100.00
15294;BME280;7748;52.474;13.454;2023-02-13T13:19:07;103285.88;;;8.64;100.00
15294;BME280;7748;52.474;13.454;2023-02-13T13:21:42;103294.28;;;8.72;100.00
15294;BME280;7748;52.474;13.454;2023-02-13T13:24:40;103293.41;;;8.61;100.00
15294;BME280;7748;52.474;13.454;2023-02-13T13:27:18;103279.41;;;8.59;100.00